Bristol, Tennessee
Current Conditions -  °F | °C
As of 1:35 PM on Sunday 21 Dec 2014 (Local Time) from KVJI Reporting Station
Scattered Clouds Scattered Clouds  
Wind Chill:   Ceiling: Unl
Heat Index:   Visibility: 10mi
Dew Point:   Wind: 0mph
Humidity: 55%   Direction: NA
Pressure: 30.15"   Gusts: NA
Location:  36.59°N, 82.22°W
Report Text: KVJI 211835Z AUTO 00000KT 10SM SCT030 09/01 A3015 RMK AO2 T00940007
Loading
Personal Weather Stations






























Interactive Weather Map New forecast layout! Learn more

10-Day Weather Forecast

Advertisements
Track Severe Weather on mobile